Brentwood, California
Current Conditions -  °F | °C
As of 8:53 PM on Wednesday 22 Oct 2014 (Local Time) from KLVK Reporting Station
Clear Clear  
Wind Chill: 65°   Ceiling: Unl
Heat Index: 65°   Visibility: 10mi
Dew Point: 56°   Wind: 6mph
Humidity: 73%   Direction: 280°W
Pressure: 30.04"   Gusts: NA
Location:  37.93°N, 121.69°W
Report Text: KLVK 230353Z 28005KT 10SM CLR 18/13 A3004 RMK AO2 SLP172 T01830133
Loading
Personal Weather Stations






























Interactive Weather Map
Tropical Storm Tracking
New forecast layout! Learn more

10-Day Weather Forecast

Advertisements
Track Severe Weather on mobile